createdAt,value
2018-09-15T00:00:13.004Z,821.87
2018-09-15T00:01:13.017Z,821.87
2018-09-15T00:02:13.037Z,821.81
2018-09-15T00:03:13.051Z,821.83
2018-09-15T00:04:13.067Z,821.82
2018-09-15T00:05:13.090Z,821.81
2018-09-15T00:06:13.102Z,821.79
2018-09-15T00:07:13.118Z,821.77
2018-09-15T00:08:13.136Z,821.82
2018-09-15T00:09:13.154Z,821.77
2018-09-15T00:10:13.171Z,821.80
2018-09-15T00:11:13.188Z,821.79
2018-09-15T00:12:13.210Z,821.79
2018-09-15T00:13:13.228Z,821.79
2018-09-15T00:14:13.241Z,821.77
2018-09-15T00:15:13.256Z,821.77
2018-09-15T00:16:13.273Z,821.78
2018-09-15T00:17:13.290Z,821.76
2018-09-15T00:18:13.307Z,821.77
2018-09-15T00:19:13.326Z,821.78
2018-09-15T00:20:13.340Z,821.77
2018-09-15T00:21:13.358Z,821.82
2018-09-15T00:22:13.376Z,821.77
2018-09-15T00:23:13.487Z,821.76
2018-09-15T00:24:13.407Z,821.78
2018-09-15T00:25:13.423Z,821.74
2018-09-15T00:26:13.439Z,821.73
2018-09-15T00:27:13.456Z,821.76
2018-09-15T00:28:13.474Z,821.76
2018-09-15T00:29:13.491Z,821.74
2018-09-15T00:30:13.509Z,821.72
2018-09-15T00:31:13.525Z,821.76
2018-09-15T00:32:13.540Z,821.73
2018-09-15T00:33:13.557Z,821.76
2018-09-15T00:34:13.576Z,821.75
2018-09-15T00:35:13.590Z,821.79
2018-09-15T00:36:13.608Z,821.76
2018-09-15T00:37:13.625Z,821.75
2018-09-15T00:38:13.644Z,821.75
2018-09-15T00:39:13.657Z,821.77
2018-09-15T00:40:13.679Z,821.73
2018-09-15T00:41:13.695Z,821.74
2018-09-15T00:42:13.709Z,821.76
2018-09-15T00:43:13.726Z,821.75
2018-09-15T00:44:13.746Z,821.73
2018-09-15T00:45:13.758Z,821.73
2018-09-15T00:46:13.774Z,821.75
2018-09-15T00:47:13.790Z,821.72
2018-09-15T00:48:13.805Z,821.74
2018-09-15T00:49:13.825Z,821.75
2018-09-15T00:50:13.840Z,821.77
2018-09-15T00:51:13.859Z,821.76
2018-09-15T00:52:13.873Z,821.72
2018-09-15T00:53:13.890Z,821.75
2018-09-15T00:54:13.908Z,821.72
2018-09-15T00:55:13.928Z,821.73
2018-09-15T00:56:13.942Z,821.71
2018-09-15T00:57:13.958Z,821.70
2018-09-15T00:58:13.976Z,821.72
2018-09-15T00:59:13.992Z,821.68
2018-09-15T01:00:14.007Z,821.69
2018-09-15T01:01:14.024Z,821.67
2018-09-15T01:02:14.041Z,821.62
2018-09-15T01:03:14.057Z,821.66
2018-09-15T01:04:14.074Z,821.66
2018-09-15T01:05:14.092Z,821.73
2018-09-15T01:06:14.107Z,821.71
2018-09-15T01:07:14.125Z,821.72
2018-09-15T01:08:14.141Z,821.68
2018-09-15T01:09:14.157Z,821.71
2018-09-15T01:10:14.179Z,821.76
2018-09-15T01:11:14.192Z,821.73
2018-09-15T01:12:14.214Z,821.73
2018-09-15T01:13:14.225Z,821.71
2018-09-15T01:14:14.357Z,821.72
2018-09-15T01:15:14.257Z,821.68
2018-09-15T01:16:14.277Z,821.69
2018-09-15T01:17:14.294Z,821.69
2018-09-15T01:18:14.311Z,821.68
2018-09-15T01:19:14.325Z,821.73
2018-09-15T01:20:14.341Z,821.71
2018-09-15T01:21:14.358Z,821.72
2018-09-15T01:22:14.376Z,821.73
2018-09-15T01:23:14.393Z,821.76
2018-09-15T01:24:14.412Z,821.76
2018-09-15T01:25:14.425Z,821.77
2018-09-15T01:26:14.443Z,821.76
2018-09-15T01:27:14.457Z,821.76
2018-09-15T01:28:14.475Z,821.80
2018-09-15T01:29:14.494Z,821.77
2018-09-15T01:30:14.509Z,821.74
2018-09-15T01:31:14.527Z,821.74
2018-09-15T01:32:14.541Z,821.73
2018-09-15T01:33:14.559Z,821.74
2018-09-15T01:34:14.580Z,821.74
2018-09-15T01:35:14.590Z,821.76
2018-09-15T01:36:14.613Z,821.73
2018-09-15T01:37:14.622Z,821.71
2018-09-15T01:38:14.640Z,821.73
2018-09-15T01:39:14.662Z,821.73
2018-09-15T01:40:14.674Z,821.71
2018-09-15T01:41:14.689Z,821.67
2018-09-15T01:42:14.708Z,821.70
2018-09-15T01:43:14.721Z,821.70
2018-09-15T01:44:14.737Z,821.69
2018-09-15T01:45:14.766Z,821.70
2018-09-15T01:46:14.773Z,821.68
2018-09-15T01:47:14.786Z,821.67
2018-09-15T01:48:14.803Z,821.65
2018-09-15T01:49:14.820Z,821.64
2018-09-15T01:50:14.835Z,821.67
2018-09-15T01:51:14.853Z,821.67
2018-09-15T01:52:14.868Z,821.66
2018-09-15T01:53:14.886Z,821.65
2018-09-15T01:54:14.903Z,821.67
2018-09-15T01:55:14.917Z,821.62
2018-09-15T01:56:14.932Z,821.59
2018-09-15T01:57:14.949Z,821.59
2018-09-15T01:58:14.968Z,821.55
2018-09-15T01:59:14.984Z,821.55
2018-09-15T02:00:15.001Z,821.60
2018-09-15T02:01:15.015Z,821.59
2018-09-15T02:02:15.034Z,821.61
2018-09-15T02:03:15.048Z,821.57
2018-09-15T02:04:15.063Z,821.61
2018-09-15T02:05:15.083Z,821.57
2018-09-15T02:06:15.098Z,821.57
2018-09-15T02:07:15.114Z,821.60
2018-09-15T02:08:15.128Z,821.64
2018-09-15T02:09:15.148Z,821.62
2018-09-15T02:10:15.163Z,821.64
2018-09-15T02:11:15.181Z,821.64
2018-09-15T02:12:15.196Z,821.64
2018-09-15T02:13:15.211Z,821.66
2018-09-15T02:14:15.229Z,821.62
2018-09-15T02:15:15.242Z,821.66
2018-09-15T02:16:15.261Z,821.63
2018-09-15T02:17:15.276Z,821.60
2018-09-15T02:18:15.294Z,821.58
2018-09-15T02:19:15.311Z,821.62
2018-09-15T02:20:15.325Z,821.65
2018-09-15T02:21:15.342Z,821.64
2018-09-15T02:22:15.357Z,821.64
2018-09-15T02:23:15.374Z,821.64
2018-09-15T02:24:15.390Z,821.63
2018-09-15T02:25:15.403Z,821.65
2018-09-15T02:26:15.420Z,821.62
2018-09-15T02:27:15.436Z,821.63
2018-09-15T02:28:15.460Z,821.60
2018-09-15T02:29:15.469Z,821.59
2018-09-15T02:30:15.488Z,821.53
2018-09-15T02:31:15.499Z,821.55
2018-09-15T02:32:15.516Z,821.58
2018-09-15T02:33:15.533Z,821.55
2018-09-15T02:34:15.549Z,821.56
2018-09-15T02:35:15.567Z,821.57
2018-09-15T02:36:15.580Z,821.59
2018-09-15T02:37:15.600Z,821.60
2018-09-15T02:38:15.615Z,821.60
2018-09-15T02:39:15.627Z,821.62
2018-09-15T02:40:15.645Z,821.60
2018-09-15T02:41:15.661Z,821.60
2018-09-15T02:42:15.681Z,821.58
2018-09-15T02:43:15.695Z,821.58
2018-09-15T02:44:15.710Z,821.58
2018-09-15T02:45:15.727Z,821.57
2018-09-15T02:46:15.742Z,821.62
2018-09-15T02:47:15.756Z,821.64
2018-09-15T02:48:15.776Z,821.61
2018-09-15T02:49:15.791Z,821.63
2018-09-15T02:50:15.806Z,821.65
2018-09-15T02:51:15.824Z,821.62
2018-09-15T02:52:15.836Z,821.60
2018-09-15T02:53:15.856Z,821.62
2018-09-15T02:54:15.875Z,821.60
2018-09-15T02:55:15.887Z,821.59
2018-09-15T02:56:15.902Z,821.61
2018-09-15T02:57:15.919Z,821.63
2018-09-15T02:58:15.934Z,821.63
2018-09-15T02:59:15.952Z,821.67
2018-09-15T03:00:15.964Z,821.69
2018-09-15T03:01:15.981Z,821.66
2018-09-15T03:02:15.999Z,821.65
2018-09-15T03:03:16.013Z,821.63
2018-09-15T03:04:16.032Z,821.67
2018-09-15T03:05:16.048Z,821.71
2018-09-15T03:06:16.062Z,821.72
2018-09-15T03:07:16.078Z,821.73
2018-09-15T03:08:16.093Z,821.69
2018-09-15T03:09:16.112Z,821.67
2018-09-15T03:10:16.127Z,821.70
2018-09-15T03:11:16.147Z,821.73
2018-09-15T03:12:16.160Z,821.73
2018-09-15T03:13:16.174Z,821.71
2018-09-15T03:14:16.191Z,821.77
2018-09-15T03:15:16.207Z,821.75
2018-09-15T03:16:16.224Z,821.77
2018-09-15T03:17:16.237Z,821.77
2018-09-15T03:18:16.258Z,821.81
2018-09-15T03:19:16.271Z,821.79
2018-09-15T03:20:16.286Z,821.81
2018-09-15T03:21:16.305Z,821.77
2018-09-15T03:22:16.322Z,821.82
2018-09-15T03:23:16.336Z,821.76
2018-09-15T03:24:16.353Z,821.77
2018-09-15T03:25:16.377Z,821.73
2018-09-15T03:26:16.386Z,821.73
2018-09-15T03:27:16.400Z,821.73
2018-09-15T03:28:16.416Z,821.74
2018-09-15T03:29:16.433Z,821.78
2018-09-15T03:30:16.451Z,821.77
2018-09-15T03:31:16.466Z,821.80
2018-09-15T03:32:16.490Z,821.81
2018-09-15T03:33:16.497Z,821.87
2018-09-15T03:34:16.515Z,821.87
2018-09-15T03:35:16.530Z,821.83
2018-09-15T03:36:16.545Z,821.88
2018-09-15T03:37:16.565Z,821.83
2018-09-15T03:38:16.580Z,821.87
2018-09-15T03:39:16.594Z,821.89
2018-09-15T03:40:16.679Z,821.90
2018-09-15T03:41:16.633Z,821.91
2018-09-15T03:42:16.644Z,821.95
2018-09-15T03:43:16.660Z,821.90
2018-09-15T03:44:16.679Z,821.93
2018-09-15T03:45:16.695Z,821.98
2018-09-15T03:46:16.711Z,821.97
2018-09-15T03:47:16.728Z,821.95
2018-09-15T03:48:16.743Z,821.95
2018-09-15T03:49:16.757Z,821.96
2018-09-15T03:50:16.776Z,821.95
2018-09-15T03:51:16.788Z,821.95
2018-09-15T03:52:16.806Z,821.96
2018-09-15T03:53:16.823Z,821.94
2018-09-15T03:54:16.839Z,821.93
2018-09-15T03:55:16.856Z,821.94
2018-09-15T03:56:16.872Z,821.91
2018-09-15T03:57:16.887Z,821.92
2018-09-15T03:58:16.903Z,821.91
2018-09-15T03:59:16.926Z,821.89
2018-09-15T04:00:16.937Z,821.90
2018-09-15T04:01:16.952Z,821.90
2018-09-15T04:02:16.969Z,821.93
2018-09-15T04:03:16.984Z,821.91
2018-09-15T04:04:17.000Z,821.91
2018-09-15T04:05:17.016Z,821.92
2018-09-15T04:06:17.034Z,821.87
2018-09-15T04:07:17.050Z,821.90
2018-09-15T04:08:17.065Z,821.93
2018-09-15T04:09:17.084Z,821.90
2018-09-15T04:10:17.109Z,821.92
2018-09-15T04:11:17.114Z,821.91
2018-09-15T04:12:17.130Z,821.94
2018-09-15T04:13:17.147Z,821.96
2018-09-15T04:14:17.163Z,821.97
2018-09-15T04:15:17.180Z,821.96
2018-09-15T04:16:17.195Z,821.98
2018-09-15T04:17:17.211Z,821.97
2018-09-15T04:18:17.227Z,822.00
2018-09-15T04:19:17.244Z,821.98
2018-09-15T04:20:17.259Z,821.97
2018-09-15T04:21:17.274Z,821.94
2018-09-15T04:22:17.293Z,821.95
2018-09-15T04:23:17.308Z,821.95
2018-09-15T04:24:17.325Z,821.91
2018-09-15T04:25:17.345Z,821.91
2018-09-15T04:26:17.359Z,821.90
2018-09-15T04:27:17.371Z,821.95
2018-09-15T04:28:17.405Z,821.94
2018-09-15T04:29:17.411Z,821.98
2018-09-15T04:30:17.423Z,821.96
2018-09-15T04:31:17.438Z,821.93
2018-09-15T04:32:17.453Z,821.95
2018-09-15T04:33:17.473Z,821.90
2018-09-15T04:34:17.486Z,821.90
2018-09-15T04:35:17.504Z,821.91
2018-09-15T04:36:17.518Z,821.92
2018-09-15T04:37:17.541Z,821.94
2018-09-15T04:38:17.549Z,821.93
2018-09-15T04:39:17.566Z,821.93
2018-09-15T04:40:17.584Z,821.93
2018-09-15T04:41:17.598Z,821.94
2018-09-15T04:42:17.615Z,821.93
2018-09-15T04:43:17.629Z,821.99
2018-09-15T04:44:17.646Z,821.95
2018-09-15T04:45:17.660Z,821.96
2018-09-15T04:46:17.679Z,821.96
2018-09-15T04:47:17.694Z,821.99
2018-09-15T04:48:17.711Z,821.99
2018-09-15T04:49:17.725Z,822.04
2018-09-15T04:50:17.743Z,822.04
2018-09-15T04:51:17.760Z,822.01
2018-09-15T04:52:17.773Z,822.00
2018-09-15T04:53:17.790Z,822.07
2018-09-15T04:54:17.804Z,822.05
2018-09-15T04:55:17.832Z,822.02
2018-09-15T04:56:17.839Z,822.03
2018-09-15T04:57:17.860Z,822.04
2018-09-15T04:58:17.870Z,822.03
2018-09-15T04:59:17.885Z,822.09
2018-09-15T05:00:17.901Z,822.06
2018-09-15T05:01:17.916Z,822.09
2018-09-15T05:02:17.934Z,822.09
2018-09-15T05:03:17.950Z,822.12
2018-09-15T05:04:17.967Z,822.09
2018-09-15T05:05:17.980Z,822.09
2018-09-15T05:06:17.998Z,822.10
2018-09-15T05:07:18.019Z,822.12
2018-09-15T05:08:18.028Z,822.12
2018-09-15T05:09:18.046Z,822.09
2018-09-15T05:10:18.061Z,822.10
2018-09-15T05:11:18.079Z,822.08
2018-09-15T05:12:18.108Z,822.05
2018-09-15T05:13:18.111Z,822.08
2018-09-15T05:14:18.124Z,822.08
2018-09-15T05:15:18.139Z,822.08
2018-09-15T05:16:18.160Z,822.08
2018-09-15T05:17:18.174Z,822.07
2018-09-15T05:18:18.189Z,822.12
2018-09-15T05:19:18.206Z,822.12
2018-09-15T05:20:18.225Z,822.07
2018-09-15T05:21:18.237Z,822.12
2018-09-15T05:22:18.252Z,822.09
2018-09-15T05:23:18.267Z,822.10
2018-09-15T05:24:18.283Z,822.08
2018-09-15T05:25:18.303Z,822.09
2018-09-15T05:26:18.317Z,822.11
2018-09-15T05:27:18.331Z,822.07
2018-09-15T05:28:18.349Z,822.10
2018-09-15T05:29:18.364Z,822.12
2018-09-15T05:30:18.381Z,822.10
2018-09-15T05:31:18.396Z,822.10
2018-09-15T05:32:18.425Z,822.10
2018-09-15T05:33:18.428Z,822.12
2018-09-15T05:34:18.444Z,822.12
2018-09-15T05:35:18.457Z,822.15
2018-09-15T05:36:18.474Z,822.17
2018-09-15T05:37:18.489Z,822.17
2018-09-15T05:38:18.506Z,822.18
2018-09-15T05:39:18.523Z,822.22
2018-09-15T05:40:18.539Z,822.21
2018-09-15T05:41:18.554Z,822.20
2018-09-15T05:42:18.571Z,822.20
2018-09-15T05:43:18.585Z,822.24
2018-09-15T05:44:18.601Z,822.23
2018-09-15T05:45:18.619Z,822.19
2018-09-15T05:46:18.632Z,822.25
2018-09-15T05:47:18.664Z,822.27
2018-09-15T05:48:18.663Z,822.28
2018-09-15T05:49:18.680Z,822.29
2018-09-15T05:50:18.693Z,822.32
2018-09-15T05:51:18.712Z,822.33
2018-09-15T05:52:18.730Z,822.35
2018-09-15T05:53:18.741Z,822.33
2018-09-15T05:54:18.758Z,822.36
2018-09-15T05:55:18.772Z,822.35
2018-09-15T05:56:18.789Z,822.35
2018-09-15T05:57:18.806Z,822.32
2018-09-15T05:58:18.824Z,822.36
2018-09-15T05:59:18.840Z,822.34
2018-09-15T06:00:18.907Z,822.36
2018-09-15T06:01:18.866Z,822.34
2018-09-15T06:02:18.884Z,822.36
2018-09-15T06:03:18.903Z,822.34
2018-09-15T06:04:18.941Z,822.32
2018-09-15T06:05:18.930Z,822.30
2018-09-15T06:06:18.949Z,822.31
2018-09-15T06:07:18.962Z,822.31
2018-09-15T06:08:18.978Z,822.33
2018-09-15T06:09:18.993Z,822.37
2018-09-15T06:10:19.010Z,822.32
2018-09-15T06:11:19.027Z,822.35
2018-09-15T06:12:19.046Z,822.33
2018-09-15T06:13:19.058Z,822.36
2018-09-15T06:14:19.080Z,822.35
2018-09-15T06:15:19.088Z,822.38
2018-09-15T06:16:19.106Z,822.43
2018-09-15T06:17:19.123Z,822.42
2018-09-15T06:18:19.140Z,822.38
2018-09-15T06:19:19.153Z,822.40
2018-09-15T06:20:19.172Z,822.41
2018-09-15T06:21:19.187Z,822.41
2018-09-15T06:22:19.203Z,822.41
2018-09-15T06:23:19.216Z,822.43
2018-09-15T06:24:19.235Z,822.41
2018-09-15T06:25:19.249Z,822.47
2018-09-15T06:26:19.265Z,822.42
2018-09-15T06:27:19.284Z,822.45
2018-09-15T06:28:19.296Z,822.45
2018-09-15T06:29:19.312Z,822.39
2018-09-15T06:30:19.336Z,822.40
2018-09-15T06:31:19.345Z,822.39
2018-09-15T06:32:19.363Z,822.37
2018-09-15T06:33:19.376Z,822.34
2018-09-15T06:34:19.394Z,822.39
2018-09-15T06:35:19.408Z,822.37
2018-09-15T06:36:19.456Z,822.40
2018-09-15T06:37:19.441Z,822.35
2018-09-15T06:38:19.458Z,822.35
2018-09-15T06:39:19.526Z,822.35
2018-09-15T06:40:19.488Z,822.33
2018-09-15T06:41:19.504Z,822.35
2018-09-15T06:42:19.521Z,822.37
2018-09-15T06:43:19.537Z,822.33
2018-09-15T06:44:19.555Z,822.32
2018-09-15T06:45:19.586Z,822.34
2018-09-15T06:46:19.586Z,822.36
2018-09-15T06:47:19.606Z,822.40
2018-09-15T06:48:19.615Z,822.45
2018-09-15T06:49:19.631Z,822.45
2018-09-15T06:50:19.648Z,822.48
2018-09-15T06:51:19.696Z,822.45
2018-09-15T06:52:19.679Z,822.50
2018-09-15T06:53:19.697Z,822.49
2018-09-15T06:54:19.712Z,822.55
2018-09-15T06:55:19.725Z,822.53
2018-09-15T06:56:19.743Z,822.53
2018-09-15T06:57:19.757Z,822.48
2018-09-15T06:58:19.773Z,822.46
2018-09-15T06:59:19.788Z,822.54
2018-09-15T07:00:19.805Z,822.49
2018-09-15T07:01:19.822Z,822.54
2018-09-15T07:02:19.836Z,822.55
2018-09-15T07:03:19.850Z,822.57
2018-09-15T07:04:19.869Z,822.56
2018-09-15T07:05:19.883Z,822.56
2018-09-15T07:06:19.899Z,822.54
2018-09-15T07:07:19.915Z,822.58
2018-09-15T07:08:19.930Z,822.60
2018-09-15T07:09:19.945Z,822.58
2018-09-15T07:10:19.961Z,822.57
2018-09-15T07:11:19.976Z,822.61
2018-09-15T07:12:19.992Z,822.62
2018-09-15T07:13:20.011Z,822.60
2018-09-15T07:14:20.024Z,822.57
2018-09-15T07:15:20.040Z,822.56
2018-09-15T07:16:20.055Z,822.58
2018-09-15T07:17:20.074Z,822.58
2018-09-15T07:18:20.089Z,822.58
2018-09-15T07:19:20.102Z,822.56
2018-09-15T07:20:20.121Z,822.58
2018-09-15T07:21:20.135Z,822.59
2018-09-15T07:22:20.151Z,822.60
2018-09-15T07:23:20.166Z,822.62
2018-09-15T07:24:20.182Z,822.62
2018-09-15T07:25:20.202Z,822.66
2018-09-15T07:26:20.211Z,822.64
2018-09-15T07:27:20.232Z,822.66
2018-09-15T07:28:20.247Z,822.67
2018-09-15T07:29:20.263Z,822.68
2018-09-15T07:30:20.277Z,822.65
2018-09-15T07:31:20.367Z,822.68
2018-09-15T07:32:20.310Z,822.70
2018-09-15T07:33:20.325Z,822.70
2018-09-15T07:34:20.342Z,822.72
2018-09-15T07:35:20.354Z,822.72
2018-09-15T07:36:20.372Z,822.72
2018-09-15T07:37:20.388Z,822.70
2018-09-15T07:38:20.405Z,822.70
2018-09-15T07:39:20.421Z,822.72
2018-09-15T07:40:20.440Z,822.70
2018-09-15T07:41:20.453Z,822.73
2018-09-15T07:42:20.469Z,822.69
2018-09-15T07:43:20.495Z,822.72
2018-09-15T07:44:20.505Z,822.72
2018-09-15T07:45:20.519Z,822.73
2018-09-15T07:46:20.535Z,822.75
2018-09-15T07:47:20.548Z,822.76
2018-09-15T07:48:20.568Z,822.75
2018-09-15T07:49:20.587Z,822.75
2018-09-15T07:50:20.598Z,822.81
2018-09-15T07:51:20.613Z,822.83
2018-09-15T07:52:20.631Z,822.81
2018-09-15T07:53:20.650Z,822.88
2018-09-15T07:54:20.663Z,822.85
2018-09-15T07:55:20.681Z,822.83
2018-09-15T07:56:20.697Z,822.83
2018-09-15T07:57:20.751Z,822.84
2018-09-15T07:58:20.732Z,822.82
2018-09-15T07:59:20.747Z,822.84
2018-09-15T08:00:20.763Z,822.83
2018-09-15T08:01:20.782Z,822.81
2018-09-15T08:02:20.794Z,822.79
2018-09-15T08:03:20.810Z,822.81
2018-09-15T08:04:20.826Z,822.82
2018-09-15T08:05:20.841Z,822.79
2018-09-15T08:06:20.867Z,822.81
2018-09-15T08:07:20.876Z,822.81
2018-09-15T08:08:20.892Z,822.84
2018-09-15T08:09:20.905Z,822.79
2018-09-15T08:10:20.924Z,822.82
2018-09-15T08:11:20.941Z,822.82
2018-09-15T08:12:20.959Z,822.80
2018-09-15T08:13:20.975Z,822.83
2018-09-15T08:14:20.989Z,822.80
2018-09-15T08:15:21.008Z,822.84
2018-09-15T08:16:21.023Z,822.84
2018-09-15T08:17:21.044Z,822.82
2018-09-15T08:18:21.055Z,822.88
2018-09-15T08:19:21.070Z,822.88
2018-09-15T08:20:21.089Z,822.88
2018-09-15T08:21:21.104Z,822.86
2018-09-15T08:22:21.120Z,822.85
2018-09-15T08:23:21.136Z,822.88
2018-09-15T08:24:21.153Z,822.86
2018-09-15T08:25:21.170Z,822.88
2018-09-15T08:26:21.312Z,822.90
2018-09-15T08:27:21.305Z,822.89
2018-09-15T08:28:21.218Z,822.95
2018-09-15T08:29:21.235Z,822.91
2018-09-15T08:30:21.251Z,822.96
2018-09-15T08:31:21.267Z,822.96
2018-09-15T08:32:21.283Z,822.99
2018-09-15T08:33:21.299Z,823.01
2018-09-15T08:34:21.320Z,822.96
2018-09-15T08:35:21.333Z,822.95
2018-09-15T08:36:21.349Z,822.96
2018-09-15T08:37:21.366Z,822.98
2018-09-15T08:38:21.407Z,822.99
2018-09-15T08:39:21.397Z,823.00
2018-09-15T08:40:21.416Z,822.96
2018-09-15T08:41:21.445Z,823.00
2018-09-15T08:42:21.450Z,823.01
2018-09-15T08:43:21.465Z,823.01
2018-09-15T08:44:21.483Z,822.98
2018-09-15T08:45:21.498Z,823.03
2018-09-15T08:46:21.521Z,823.05
2018-09-15T08:47:21.533Z,823.04
2018-09-15T08:48:21.610Z,823.05
2018-09-15T08:49:21.566Z,823.01
2018-09-15T08:50:21.589Z,823.06
2018-09-15T08:51:21.601Z,823.08
2018-09-15T08:52:21.619Z,823.08
2018-09-15T08:53:21.640Z,823.10
2018-09-15T08:54:21.653Z,823.10
2018-09-15T08:55:21.668Z,823.09
2018-09-15T08:56:21.686Z,823.08
2018-09-15T08:57:21.704Z,823.10
2018-09-15T08:58:21.721Z,823.09
2018-09-15T08:59:21.737Z,823.13
2018-09-15T09:00:21.755Z,823.15
2018-09-15T09:01:21.771Z,823.11
2018-09-15T09:02:21.787Z,823.12
2018-09-15T09:03:21.804Z,823.15
2018-09-15T09:04:21.820Z,823.16
2018-09-15T09:05:21.841Z,823.16
2018-09-15T09:06:21.854Z,823.18
2018-09-15T09:07:21.872Z,823.19
2018-09-15T09:08:21.890Z,823.21
2018-09-15T09:09:21.908Z,823.21
2018-09-15T09:10:21.988Z,823.24
2018-09-15T09:11:21.941Z,823.26
2018-09-15T09:12:21.958Z,823.26
2018-09-15T09:13:21.978Z,823.26
2018-09-15T09:14:21.995Z,823.27
2018-09-15T09:15:22.011Z,823.27
2018-09-15T09:16:22.028Z,823.26
2018-09-15T09:17:22.046Z,823.25
2018-09-15T09:18:22.064Z,823.27
2018-09-15T09:19:22.082Z,823.25
2018-09-15T09:20:22.099Z,823.27
2018-09-15T09:21:22.117Z,823.26
2018-09-15T09:22:22.134Z,823.23
2018-09-15T09:23:22.150Z,823.24
2018-09-15T09:24:22.170Z,823.24
2018-09-15T09:25:22.186Z,823.28
2018-09-15T09:26:22.308Z,823.24
2018-09-15T09:27:22.221Z,823.22
2018-09-15T09:28:22.241Z,823.19
2018-09-15T09:29:22.262Z,823.20
2018-09-15T09:30:22.276Z,823.22
2018-09-15T09:31:22.292Z,823.23
2018-09-15T09:32:22.382Z,823.24
2018-09-15T09:33:22.470Z,823.24
2018-09-15T09:34:22.348Z,823.26
2018-09-15T09:35:22.363Z,823.28
2018-09-15T09:36:22.381Z,823.26
2018-09-15T09:37:22.401Z,823.32
2018-09-15T09:38:22.422Z,823.32
2018-09-15T09:39:22.435Z,823.32
2018-09-15T09:40:22.456Z,823.38
2018-09-15T09:41:22.485Z,823.34
2018-09-15T09:42:22.494Z,823.38
2018-09-15T09:43:22.507Z,823.40
2018-09-15T09:44:22.527Z,823.33
2018-09-15T09:45:22.545Z,823.40
2018-09-15T09:46:22.565Z,823.40
2018-09-15T09:47:22.581Z,823.42
2018-09-15T09:48:22.630Z,823.42
2018-09-15T09:49:22.619Z,823.41
2018-09-15T09:50:22.639Z,823.41
2018-09-15T09:51:22.656Z,823.43
2018-09-15T09:52:22.675Z,823.42
2018-09-15T09:53:22.691Z,823.41
2018-09-15T09:54:22.711Z,823.44
2018-09-15T09:55:22.728Z,823.44
2018-09-15T09:56:22.749Z,823.44
2018-09-15T09:57:22.774Z,823.44
2018-09-15T09:58:22.786Z,823.46
2018-09-15T09:59:22.808Z,823.46
2018-09-15T10:00:22.825Z,823.46
2018-09-15T10:01:22.911Z,823.43
2018-09-15T10:02:22.863Z,823.42
2018-09-15T10:03:22.881Z,823.42
2018-09-15T10:04:22.910Z,823.41
2018-09-15T10:05:22.918Z,823.37
2018-09-15T10:06:22.941Z,823.38
2018-09-15T10:07:22.955Z,823.39
2018-09-15T10:08:22.975Z,823.39
2018-09-15T10:09:22.996Z,823.37
2018-09-15T10:10:23.013Z,823.36
2018-09-15T10:11:23.031Z,823.39
2018-09-15T10:12:23.050Z,823.37
2018-09-15T10:13:23.070Z,823.36
2018-09-15T10:14:23.088Z,823.34
2018-09-15T10:15:23.113Z,823.36
2018-09-15T10:16:23.208Z,823.35
2018-09-15T10:17:23.145Z,823.38
2018-09-15T10:18:23.169Z,823.32
2018-09-15T10:19:23.184Z,823.35
2018-09-15T10:20:23.204Z,823.34
2018-09-15T10:21:23.277Z,823.33
2018-09-15T10:22:23.246Z,823.37
2018-09-15T10:23:23.262Z,823.35
2018-09-15T10:24:23.281Z,823.34
2018-09-15T10:25:23.299Z,823.32
2018-09-15T10:26:23.318Z,823.34
2018-09-15T10:27:23.335Z,823.35
2018-09-15T10:28:23.358Z,823.31
2018-09-15T10:29:23.383Z,823.26
2018-09-15T10:30:23.402Z,823.26
2018-09-15T10:31:23.417Z,823.28
2018-09-15T10:32:23.438Z,823.28
2018-09-15T10:33:23.456Z,823.28
2018-09-15T10:34:23.476Z,823.24
2018-09-15T10:35:23.495Z,823.23
2018-09-15T10:36:23.520Z,823.27
2018-09-15T10:37:23.535Z,823.23
2018-09-15T10:38:23.575Z,823.24
2018-09-15T10:39:23.574Z,823.20
2018-09-15T10:40:23.658Z,823.24
2018-09-15T10:41:23.617Z,823.20
2018-09-15T10:42:23.635Z,823.24
2018-09-15T10:43:23.655Z,823.19
2018-09-15T10:44:23.677Z,823.15
2018-09-15T10:45:23.696Z,823.15
2018-09-15T10:46:23.717Z,823.16
2018-09-15T10:47:23.734Z,823.19
2018-09-15T10:48:23.762Z,823.19
2018-09-15T10:49:23.777Z,823.20
2018-09-15T10:50:23.804Z,823.16
2018-09-15T10:51:23.819Z,823.21
2018-09-15T10:52:23.856Z,823.18
2018-09-15T10:53:23.859Z,823.17
2018-09-15T10:54:23.879Z,823.20
2018-09-15T10:55:23.897Z,823.22
2018-09-15T10:56:23.919Z,823.22
2018-09-15T10:57:23.941Z,823.29
2018-09-15T10:58:23.958Z,823.27
2018-09-15T10:59:23.982Z,823.30
2018-09-15T11:00:24.056Z,823.25
2018-09-15T11:01:24.026Z,823.28
2018-09-15T11:02:24.047Z,823.27
2018-09-15T11:03:24.066Z,823.19
2018-09-15T11:04:24.087Z,823.29
2018-09-15T11:05:24.109Z,823.25
2018-09-15T11:06:24.127Z,823.20
2018-09-15T11:07:24.148Z,823.23
2018-09-15T11:08:24.168Z,823.19
2018-09-15T11:09:24.189Z,823.22
2018-09-15T11:10:24.210Z,823.24
2018-09-15T11:11:24.231Z,823.18
2018-09-15T11:12:24.254Z,823.17
2018-09-15T11:13:24.363Z,823.20
2018-09-15T11:14:24.293Z,823.21
2018-09-15T11:15:24.316Z,823.17
2018-09-15T11:16:24.336Z,823.19
2018-09-15T11:17:24.361Z,823.17
2018-09-15T11:18:24.383Z,823.19
2018-09-15T11:19:24.404Z,823.17
2018-09-15T11:20:24.423Z,823.15
2018-09-15T11:21:24.441Z,823.15
2018-09-15T11:22:24.496Z,823.15
2018-09-15T11:23:24.484Z,823.11
2018-09-15T11:24:24.505Z,823.14
2018-09-15T11:25:24.528Z,823.13
2018-09-15T11:26:24.550Z,823.08
2018-09-15T11:27:24.566Z,823.11
2018-09-15T11:28:24.632Z,823.04
2018-09-15T11:29:24.612Z,823.02
2018-09-15T11:30:24.631Z,823.06
2018-09-15T11:31:24.652Z,823.07
2018-09-15T11:32:24.676Z,823.06
2018-09-15T11:33:24.696Z,823.09
2018-09-15T11:34:24.716Z,823.07
2018-09-15T11:35:24.734Z,823.05
2018-09-15T11:36:24.758Z,823.02
2018-09-15T11:37:24.781Z,823.07
2018-09-15T11:38:24.799Z,823.02
2018-09-15T11:39:24.819Z,823.02
2018-09-15T11:40:24.840Z,823.01
2018-09-15T11:41:24.862Z,823.00
2018-09-15T11:42:24.883Z,822.98
2018-09-15T11:43:24.902Z,823.04
2018-09-15T11:44:24.928Z,822.93
2018-09-15T11:45:24.945Z,822.99
2018-09-15T11:46:24.966Z,822.98
2018-09-15T11:47:24.991Z,822.92
2018-09-15T11:48:25.020Z,822.98
2018-09-15T11:49:25.028Z,822.89
2018-09-15T11:50:25.050Z,822.91
2018-09-15T11:51:25.070Z,822.93
2018-09-15T11:52:25.093Z,822.95
2018-09-15T11:53:25.111Z,822.88
2018-09-15T11:54:25.135Z,822.86
2018-09-15T11:55:25.155Z,822.89
2018-09-15T11:56:25.176Z,822.90
2018-09-15T11:57:25.197Z,822.89
2018-09-15T11:58:25.222Z,822.93
2018-09-15T11:59:25.239Z,822.91
2018-09-15T12:00:25.264Z,822.89
2018-09-15T12:01:25.282Z,822.89
2018-09-15T12:02:25.303Z,822.80
2018-09-15T12:03:25.329Z,822.90
2018-09-15T12:04:25.343Z,822.93
2018-09-15T12:05:25.367Z,822.90
2018-09-15T12:06:25.387Z,822.85
2018-09-15T12:07:25.409Z,822.87
2018-09-15T12:08:25.429Z,822.85
2018-09-15T12:09:25.479Z,822.90
2018-09-15T12:10:25.468Z,822.82
2018-09-15T12:11:25.490Z,822.86
2018-09-15T12:12:25.514Z,822.87
2018-09-15T12:13:25.532Z,822.78
2018-09-15T12:14:25.578Z,822.77
2018-09-15T12:15:25.572Z,822.78
2018-09-15T12:16:25.595Z,822.72
2018-09-15T12:17:25.614Z,822.84
2018-09-15T12:18:25.636Z,822.80
2018-09-15T12:19:25.657Z,822.74
2018-09-15T12:20:25.679Z,822.75
2018-09-15T12:21:25.704Z,822.76
2018-09-15T12:22:25.721Z,822.77
2018-09-15T12:23:25.739Z,822.75
2018-09-15T12:24:25.763Z,822.82
2018-09-15T12:25:25.783Z,822.78
2018-09-15T12:26:25.805Z,822.80
2018-09-15T12:27:25.824Z,822.72
2018-09-15T12:28:25.846Z,822.82